createdAt,value
2016-04-08T00:00:32.790Z,99.58
2016-04-08T00:01:32.807Z,99.67
2016-04-08T00:02:33.154Z,99.58
2016-04-08T00:03:32.845Z,99.39
2016-04-08T00:04:32.848Z,99.39
2016-04-08T00:05:32.850Z,99.01
2016-04-08T00:06:32.884Z,99.29
2016-04-08T00:07:32.887Z,99.25
2016-04-08T00:08:32.921Z,99.44
2016-04-08T00:09:32.923Z,98.77
2016-04-08T00:10:39.207Z,98.91
2016-04-08T00:11:32.976Z,98.49
2016-04-08T00:12:32.995Z,98.72
2016-04-08T00:13:45.766Z,98.96
2016-04-08T00:14:33.004Z,98.68
2016-04-08T00:15:58.677Z,98.63
2016-04-08T00:16:40.696Z,98.96
2016-04-08T00:18:04.355Z,98.77
2016-04-08T00:18:48.233Z,99.2
2016-04-08T00:19:48.235Z,99.06
2016-04-08T00:21:00.988Z,98.77
2016-04-08T00:22:07.491Z,98.77
2016-04-08T00:22:48.290Z,98.91
2016-04-08T00:23:48.278Z,98.21
2016-04-08T00:24:48.920Z,98.49
2016-04-08T00:25:48.329Z,98.11
2016-04-08T00:26:48.332Z,98.49
2016-04-08T00:28:01.100Z,98.3
2016-04-08T00:29:07.587Z,98.96
2016-04-08T00:30:14.074Z,98.63
2016-04-08T00:30:48.405Z,98.77
2016-04-08T00:31:48.424Z,98.77
2016-04-08T00:32:48.457Z,99.2
2016-04-08T00:33:48.305Z,99.29
2016-04-08T00:34:48.478Z,99.48
2016-04-08T00:35:48.497Z,99.29
2016-04-08T00:37:01.219Z,98.91
2016-04-08T00:37:48.502Z,99.29
2016-04-08T00:38:48.521Z,99.67
2016-04-08T00:39:48.602Z,99.2
2016-04-08T00:40:48.557Z,99.29
2016-04-08T00:41:49.169Z,99.01
2016-04-08T00:43:14.249Z,99.91
2016-04-08T00:43:58.112Z,99.67
2016-04-08T00:45:23.834Z,99.48
2016-04-08T00:46:05.101Z,99.77
2016-04-08T00:47:02.073Z,99.39
2016-04-08T00:48:02.138Z,99.39
2016-04-08T00:49:02.126Z,99.48
2016-04-08T00:50:02.144Z,99.77
2016-04-08T00:51:02.131Z,99.99
2016-04-08T00:52:02.149Z,99.99
2016-04-08T00:53:21.370Z,99.99
2016-04-08T00:54:02.186Z,99.99
2016-04-08T00:55:02.189Z,99.99
2016-04-08T00:56:02.206Z,99.99
2016-04-08T00:57:02.242Z,99.99
2016-04-08T00:58:02.228Z,99.99
2016-04-08T00:59:14.997Z,99.99
2016-04-08T01:00:02.280Z,99.99
2016-04-08T01:01:02.283Z,99.99
2016-04-08T01:02:02.301Z,99.99
2016-04-08T01:03:02.303Z,99.99
2016-04-08T01:04:02.353Z,99.99
2016-04-08T01:05:02.341Z,99.99
2016-04-08T01:06:15.093Z,99.96
2016-04-08T01:07:02.377Z,99.99
2016-04-08T01:08:02.989Z,99.67
2016-04-08T01:09:02.398Z,99.25
2016-04-08T01:10:03.011Z,99.34
2016-04-08T01:11:02.435Z,98.68
2016-04-08T01:12:03.047Z,98.77
2016-04-08T01:13:21.675Z,98.21
2016-04-08T01:14:02.505Z,98.3
2016-04-08T01:15:02.493Z,98.11
2016-04-08T01:16:15.229Z,98.11
2016-04-08T01:17:02.513Z,98.21
2016-04-08T01:18:02.548Z,98.3
2016-04-08T01:19:02.550Z,98.72
2016-04-08T01:20:28.240Z,98.68
2016-04-08T01:21:15.305Z,98.72
2016-04-08T01:22:33.904Z,99.1
2016-04-08T01:23:02.592Z,99.2
2016-04-08T01:24:02.657Z,99.77
2016-04-08T01:25:02.645Z,99.86
2016-04-08T01:26:02.662Z,99.48
2016-04-08T01:27:02.650Z,99.58
2016-04-08T01:28:02.777Z,99.77
2016-04-08T01:29:03.295Z,99.99
2016-04-08T01:30:02.705Z,99.99
2016-04-08T01:31:02.722Z,99.99
2016-04-08T01:32:15.460Z,99.99
2016-04-08T01:33:03.353Z,99.99
2016-04-08T01:34:02.762Z,99.99
2016-04-08T01:35:09.656Z,99.99
2016-04-08T01:36:02.784Z,99.99
2016-04-08T01:37:22.036Z,99.96
2016-04-08T01:38:02.820Z,99.99
2016-04-08T01:39:02.822Z,99.99
2016-04-08T01:40:02.857Z,99.99
2016-04-08T01:41:09.125Z,99.99
2016-04-08T01:42:02.955Z,99.99
2016-04-08T01:43:03.177Z,99.99
2016-04-08T01:44:02.913Z,99.99
2016-04-08T01:45:09.198Z,99.99
2016-04-08T01:46:03.138Z,99.99
2016-04-08T01:47:02.969Z,99.99
2016-04-08T01:48:02.972Z,99.99
2016-04-08T01:49:03.193Z,99.99
2016-04-08T01:50:03.024Z,99.99
2016-04-08T01:51:03.214Z,99.99
2016-04-08T01:52:03.029Z,99.99
2016-04-08T01:53:03.032Z,99.99
2016-04-08T01:54:03.065Z,99.99
2016-04-08T01:55:03.100Z,99.99
2016-04-08T01:56:09.367Z,99.99
2016-04-08T01:57:03.089Z,99.99
2016-04-08T01:58:22.311Z,99.99
2016-04-08T01:59:03.142Z,99.99
2016-04-08T02:00:03.161Z,99.99
2016-04-08T02:01:03.163Z,99.99
2016-04-08T02:02:28.853Z,99.99
2016-04-08T02:03:12.747Z,99.99
2016-04-08T02:04:12.750Z,99.99
2016-04-08T02:05:25.517Z,99.99
2016-04-08T02:06:12.786Z,99.99
2016-04-08T02:07:38.478Z,99.99
2016-04-08T02:08:12.805Z,99.99
2016-04-08T02:09:12.823Z,99.99
2016-04-08T02:10:28.014Z,99.99
2016-04-08T02:11:28.017Z,99.99
2016-04-08T02:12:28.019Z,99.99
2016-04-08T02:13:40.805Z,99.99
2016-04-08T02:14:28.071Z,99.99
2016-04-08T02:15:28.105Z,99.99
2016-04-08T02:16:28.092Z,99.99
2016-04-08T02:17:40.847Z,99.99
2016-04-08T02:18:34.380Z,99.99
2016-04-08T02:19:47.337Z,99.99
2016-04-08T02:20:28.149Z,99.99
2016-04-08T02:21:59.467Z,99.99
2016-04-08T02:22:28.170Z,99.99
2016-04-08T02:23:28.173Z,99.99
2016-04-08T02:24:47.413Z,99.99
2016-04-08T02:25:31.257Z,99.99
2016-04-08T02:26:31.307Z,99.99
2016-04-08T02:27:31.310Z,99.99
2016-04-08T02:28:31.312Z,99.53
2016-04-08T02:29:31.330Z,99.63
2016-04-08T02:30:31.332Z,99.44
2016-04-08T02:31:31.335Z,99.63
2016-04-08T02:32:31.353Z,99.44
2016-04-08T02:33:44.109Z,98.77
2016-04-08T02:34:31.390Z,98.77
2016-04-08T02:35:57.209Z,98.58
2016-04-08T02:36:31.412Z,97.64
2016-04-08T02:37:31.429Z,97.73
2016-04-08T02:38:44.185Z,97.16
2016-04-08T02:39:31.467Z,97.07
2016-04-08T02:40:31.484Z,96.88
2016-04-08T02:41:37.771Z,96.12
2016-04-08T02:42:57.180Z,96.31
2016-04-08T02:43:50.792Z,96.36
2016-04-08T02:44:31.558Z,96.08
2016-04-08T02:46:31.594Z,96.08
2016-04-08T02:47:31.566Z,96.08
2016-04-08T02:48:31.600Z,95.69
2016-04-08T02:49:32.211Z,95.88
2016-04-08T02:50:44.374Z,95.69
2016-04-08T02:51:44.377Z,95.5
2016-04-08T02:52:31.658Z,95.31
2016-04-08T02:53:31.504Z,95.12
2016-04-08T02:54:31.694Z,95.03
2016-04-08T02:55:37.980Z,95.5
2016-04-08T02:56:31.824Z,95.41
2016-04-08T02:57:31.733Z,95.41
2016-04-08T02:58:31.798Z,95.41
2016-04-08T02:59:31.754Z,95.5
2016-04-08T03:00:31.866Z,95.31
2016-04-08T03:01:44.544Z,94.84
2016-04-08T03:02:57.484Z,95.03
2016-04-08T03:03:54.081Z,95.03
2016-04-08T03:05:00.348Z,95.31
2016-04-08T03:06:00.367Z,95.31
2016-04-08T03:07:06.870Z,95.6
2016-04-08T03:08:06.856Z,95.31
2016-04-08T03:08:54.156Z,95.03
2016-04-08T03:09:54.189Z,95.31
2016-04-08T03:11:00.458Z,95.22
2016-04-08T03:11:54.195Z,95.22
2016-04-08T03:12:54.213Z,94.93
2016-04-08T03:13:54.233Z,94.65
2016-04-08T03:14:54.250Z,95.12
2016-04-08T03:15:54.269Z,95.03
2016-04-08T03:16:54.272Z,94.84
2016-04-08T03:17:54.289Z,94.65
2016-04-08T03:19:19.980Z,94.93
2016-04-08T03:19:58.186Z,95.03
2016-04-08T03:22:07.785Z,95.31
2016-04-08T03:23:07.788Z,94.74
2016-04-08T03:24:08.400Z,94.65
2016-04-08T03:25:07.825Z,94.93
2016-04-08T03:26:22.999Z,94.56
2016-04-08T03:27:23.018Z,94.93
2016-04-08T03:28:48.694Z,94.93
2016-04-08T03:29:32.694Z,94.74
2016-04-08T03:30:32.010Z,95.31
2016-04-08T03:31:39.015Z,95.12
2016-04-08T03:32:32.671Z,95.31
2016-04-08T03:33:32.689Z,94.65
2016-04-08T03:34:58.509Z,95.03
2016-04-08T03:35:34.212Z,94.84
2016-04-08T03:36:32.806Z,95.5
2016-04-08T03:37:48.102Z,95.5
2016-04-08T03:38:48.134Z,95.6
2016-04-08T03:40:00.940Z,96.26
2016-04-08T03:40:48.817Z,95.79
2016-04-08T03:42:13.991Z,95.79
2016-04-08T03:42:48.260Z,95.98
2016-04-08T03:43:48.294Z,96.08
2016-04-08T03:45:14.008Z,95.88
2016-04-08T03:45:48.938Z,95.88
2016-04-08T03:47:19.679Z,95.5
2016-04-08T03:47:48.391Z,96.08
2016-04-08T03:49:54.701Z,95.41
2016-04-08T03:50:48.441Z,95.31
2016-04-08T03:51:48.461Z,95.22
2016-04-08T03:52:54.731Z,95.41
2016-04-08T03:54:14.158Z,96.17
2016-04-08T03:54:57.881Z,95.22
2016-04-08T03:56:17.087Z,95.22
2016-04-08T03:56:57.918Z,95.22
2016-04-08T03:57:57.922Z,95.31
2016-04-08T03:59:05.081Z,95.5
2016-04-08T04:01:08.368Z,95.31
2016-04-08T04:02:02.122Z,95.22
2016-04-08T04:03:02.125Z,95.41
2016-04-08T04:04:02.144Z,95.41
2016-04-08T04:05:27.819Z,95.12
2016-04-08T04:06:11.680Z,94.79
2016-04-08T04:07:30.886Z,94.89
2016-04-08T04:08:17.982Z,94.56
2016-04-08T04:10:28.316Z,94.32
2016-04-08T04:11:28.334Z,94.7
2016-04-08T04:12:28.946Z,94.56
2016-04-08T04:13:28.965Z,93.94
2016-04-08T04:14:28.373Z,94.46
2016-04-08T04:15:28.393Z,94.7
2016-04-08T04:16:41.148Z,95.41
2016-04-08T04:20:54.158Z,95.03
2016-04-08T04:21:38.020Z,95.46
2016-04-08T04:22:09.755Z,95.55
2016-04-08T04:23:06.758Z,95.27
2016-04-08T04:24:06.761Z,95.79
2016-04-08T04:25:25.997Z,95.46
2016-04-08T04:26:13.078Z,96.03
2016-04-08T04:27:32.486Z,95.88
2016-04-08T04:28:19.396Z,95.84
2016-04-08T04:29:22.539Z,96.41
2016-04-08T04:31:58.360Z,96.12
2016-04-08T04:32:42.222Z,96.12
2016-04-08T04:33:41.490Z,95.27
2016-04-08T04:34:42.227Z,95.46
2016-04-08T04:35:57.418Z,95.46
2016-04-08T04:36:57.498Z,95.46
2016-04-08T04:37:57.454Z,95.55
2016-04-08T04:39:10.301Z,95.46
2016-04-08T04:40:04.350Z,95.36
2016-04-08T04:43:57.673Z,96.12
2016-04-08T04:45:07.270Z,96.03
2016-04-08T04:46:32.929Z,96.03
2016-04-08T04:47:42.481Z,95.84
2016-04-08T04:48:26.340Z,96.31
2016-04-08T04:49:52.033Z,96.31
2016-04-08T04:50:37.317Z,95.93
2016-04-08T04:51:56.539Z,95.84
2016-04-08T04:53:07.509Z,96.03
2016-04-08T04:54:07.513Z,95.93
2016-04-08T04:55:07.531Z,96.03
2016-04-08T04:56:07.550Z,96.03
2016-04-08T04:57:07.568Z,96.12
2016-04-08T04:58:07.586Z,95.93
2016-04-08T04:59:20.401Z,95.93
2016-04-08T05:00:20.341Z,95.55
2016-04-08T05:01:33.297Z,95.93
2016-04-08T05:02:07.644Z,95.46
2016-04-08T05:03:42.039Z,95.36
2016-04-08T05:04:42.041Z,95.46
2016-04-08T05:05:54.810Z,95.74
2016-04-08T05:06:48.360Z,95.65
2016-04-08T05:09:04.413Z,95.07
2016-04-08T05:10:04.446Z,95.46
2016-04-08T05:11:04.590Z,95.27
2016-04-08T05:12:17.218Z,95.27
2016-04-08T05:13:17.267Z,95.07
2016-04-08T05:14:23.723Z,95.07
2016-04-08T05:15:30.210Z,94.6
2016-04-08T05:16:04.556Z,94.98
2016-04-08T05:17:04.560Z,94.6
2016-04-08T05:18:33.327Z,94.51
2016-04-08T05:19:23.455Z,94.23
2016-04-08T05:20:34.396Z,94.23
2016-04-08T05:21:52.213Z,94.23
2016-04-08T05:22:33.010Z,94.23
2016-04-08T05:23:52.234Z,94.46
2016-04-08T05:24:36.206Z,94.56
2016-04-08T05:25:39.286Z,93.99
2016-04-08T05:26:39.320Z,93.7
2016-04-08T05:28:54.575Z,93.89
2016-04-08T05:29:54.547Z,93.89
2016-04-08T05:30:54.581Z,93.51
2016-04-08T05:31:54.584Z,93.13
2016-04-08T05:32:54.602Z,93.32
2016-04-08T05:33:54.636Z,93.6
2016-04-08T05:34:54.639Z,93.51
2016-04-08T05:36:20.330Z,93.51
2016-04-08T05:37:07.410Z,93.6
2016-04-08T05:38:25.991Z,93.32
2016-04-08T05:39:17.149Z,93.41
2016-04-08T05:41:38.798Z,93.13
2016-04-08T05:42:38.832Z,92.66
2016-04-08T05:43:39.240Z,92.18
2016-04-08T05:44:39.056Z,91.99
2016-04-08T05:45:45.340Z,91.8
2016-04-08T05:46:38.889Z,92.37
2016-04-08T05:47:51.627Z,91.75
2016-04-08T05:48:39.129Z,92.04
2016-04-08T05:49:58.132Z,91.66
2016-04-08T05:50:58.166Z,91.94
2016-04-08T05:52:10.293Z,91.75
2016-04-08T05:52:38.984Z,91.85
2016-04-08T05:53:39.017Z,91.47
2016-04-08T05:54:51.598Z,91.47
2016-04-08T05:55:48.679Z,91.56
2016-04-08T05:57:07.806Z,91.19
2016-04-08T05:58:01.356Z,90.9
2016-04-08T05:58:48.672Z,90.61
2016-04-08T06:00:14.331Z,90.61
2016-04-08T06:02:00.836Z,90.8
2016-04-08T06:03:00.839Z,90.9
2016-04-08T06:04:01.061Z,90.8
2016-04-08T06:05:01.078Z,90.9
2016-04-08T06:07:16.272Z,90.23
2016-04-08T06:08:16.180Z,90.52
2016-04-08T06:09:16.199Z,90.23
2016-04-08T06:10:16.216Z,90.05
2016-04-08T06:11:22.548Z,89.8
2016-04-08T06:12:28.988Z,90.09
2016-04-08T06:13:29.007Z,89.71
2016-04-08T06:14:41.966Z,88.95
2016-04-08T06:15:17.122Z,89.42
2016-04-08T06:16:47.627Z,89.42
2016-04-08T06:17:31.565Z,88.57
2016-04-08T06:18:31.551Z,88.47
2016-04-08T06:19:31.523Z,88.38
2016-04-08T06:20:31.573Z,88.85
2016-04-08T06:21:31.559Z,88.67
2016-04-08T06:22:31.593Z,88.47
2016-04-08T06:23:32.221Z,88.95
2016-04-08T06:24:31.614Z,88.19
2016-04-08T06:25:44.400Z,87.85
2016-04-08T06:26:31.666Z,87.62
2016-04-08T06:27:50.890Z,88.38
2016-04-08T06:28:31.703Z,88.57
2016-04-08T06:29:31.705Z,88.28
2016-04-08T06:30:44.477Z,88.09
2016-04-08T06:31:44.495Z,88.23
2016-04-08T06:32:31.761Z,88.42
2016-04-08T06:33:50.986Z,88.23
2016-04-08T06:34:31.814Z,87.95
2016-04-08T06:35:57.506Z,87.66
2016-04-08T06:36:31.834Z,87.09
2016-04-08T06:38:03.356Z,86.33
2016-04-08T06:38:47.217Z,86.33
2016-04-08T06:40:06.455Z,86.61
2016-04-08T06:40:50.364Z,86.43
2016-04-08T06:42:09.569Z,86.52
2016-04-08T06:43:06.244Z,86.43
2016-04-08T06:44:06.294Z,87.09
2016-04-08T06:45:31.999Z,86.9
2016-04-08T06:46:15.877Z,86.99
2016-04-08T06:47:35.146Z,86.99
2016-04-08T06:48:15.914Z,86.9
2016-04-08T06:49:41.604Z,86.52
2016-04-08T06:50:22.247Z,86.09
2016-04-08T06:51:16.562Z,84.52
2016-04-08T06:52:28.737Z,84.38
2016-04-08T06:53:28.848Z,84.09
2016-04-08T06:54:16.023Z,84
2016-04-08T06:55:41.713Z,82.86
2016-04-08T06:56:28.607Z,82.67
2016-04-08T06:57:25.609Z,82.86
2016-04-08T06:58:38.346Z,81.9
2016-04-08T06:59:38.365Z,81.81
2016-04-08T07:00:44.217Z,81.52
2016-04-08T07:01:38.406Z,81.95
2016-04-08T07:02:25.690Z,80.99
2016-04-08T07:03:25.708Z,79.94
2016-04-08T07:04:26.399Z,79.75
2016-04-08T07:05:38.479Z,80.71
2016-04-08T07:06:26.372Z,79.94
2016-04-08T07:07:44.985Z,79.94
2016-04-08T07:08:38.520Z,80.04
2016-04-08T07:09:51.495Z,80.61
2016-04-08T07:10:25.854Z,81.14
2016-04-08T07:11:25.856Z,81.62
2016-04-08T07:12:54.736Z,82.09
2016-04-08T07:13:38.611Z,81.9
2016-04-08T07:14:38.631Z,83.14
2016-04-08T07:15:48.008Z,83.14
2016-04-08T07:17:07.419Z,83.23
2016-04-08T07:17:41.794Z,83.14
2016-04-08T07:18:41.781Z,83.23
2016-04-08T07:20:00.989Z,83.33
2016-04-08T07:20:41.911Z,83.42
2016-04-08T07:22:07.604Z,83.14
2016-04-08T07:22:54.748Z,82.57
2016-04-08T07:23:41.920Z,82.38
2016-04-08T07:25:07.628Z,81.9
2016-04-08T07:26:22.850Z,80.8
2016-04-08T07:27:01.118Z,80.99
2016-04-08T07:29:16.342Z,79.13
2016-04-08T07:30:16.346Z,78.94
2016-04-08T07:31:47.644Z,77.98
2016-04-08T07:32:31.537Z,77.61
2016-04-08T07:33:31.556Z,76.65
2016-04-08T07:34:44.324Z,77.13
2016-04-08T07:35:31.655Z,77.42
2016-04-08T07:36:50.829Z,77.61
2016-04-08T07:37:33.051Z,77.7
2016-04-08T07:38:58.745Z,77.83
2016-04-08T07:39:50.870Z,78.08
2016-04-08T07:40:31.700Z,77.8
2016-04-08T07:41:31.703Z,77.61
2016-04-08T07:42:31.721Z,77.8
2016-04-08T07:44:03.054Z,77.61
2016-04-08T07:44:46.758Z,78.27
2016-04-08T07:45:46.775Z,79.32
2016-04-08T07:46:59.547Z,79.94
2016-04-08T07:47:47.437Z,79.75
2016-04-08T07:49:06.053Z,79.85
2016-04-08T07:49:59.603Z,80.04
2016-04-08T07:51:18.198Z,80.52
2016-04-08T07:52:06.122Z,80.52
2016-04-08T07:52:46.919Z,79.85
2016-04-08T07:53:46.939Z,79.57
2016-04-08T07:54:59.709Z,79.94
2016-04-08T07:55:59.727Z,79.66
2016-04-08T07:57:06.199Z,79.47
2016-04-08T07:57:47.011Z,79.38
2016-04-08T07:59:12.735Z,79.28
2016-04-08T07:59:56.519Z,79.57
2016-04-08T08:00:56.522Z,79.94
2016-04-08T08:01:56.556Z,80.9
2016-04-08T08:03:02.824Z,81.28
2016-04-08T08:03:56.592Z,80.9
2016-04-08T08:04:56.596Z,81.37
2016-04-08T08:06:09.348Z,81.18
2016-04-08T08:07:09.585Z,80.86
2016-04-08T08:07:56.665Z,81.28
2016-04-08T08:08:56.700Z,80.9
2016-04-08T08:09:56.703Z,81.85
2016-04-08T08:10:56.720Z,82.57
2016-04-08T08:11:56.740Z,82.51
2016-04-08T08:13:15.976Z,81.85
2016-04-08T08:13:56.792Z,81.47
2016-04-08T08:14:56.794Z,81.43
2016-04-08T08:15:57.625Z,81.95
2016-04-08T08:16:56.831Z,82.42
2016-04-08T08:17:56.849Z,82.04
2016-04-08T08:19:09.617Z,81.95
2016-04-08T08:20:09.620Z,82.61
2016-04-08T08:20:56.904Z,82.23
2016-04-08T08:21:56.922Z,82.61
2016-04-08T08:22:56.956Z,81.76
2016-04-08T08:24:00.037Z,80.23
2016-04-08T08:25:00.055Z,79.85
2016-04-08T08:26:00.683Z,79.32
2016-04-08T08:27:00.092Z,79.13
2016-04-08T08:28:12.845Z,78.85
2016-04-08T08:29:00.754Z,78.75
2016-04-08T08:30:25.834Z,79.22
2016-04-08T08:31:00.197Z,78.65
2016-04-08T08:32:31.512Z,78.17
2016-04-08T08:33:15.374Z,77.89
2016-04-08T08:34:15.439Z,77.55
2016-04-08T08:35:15.426Z,77.45
2016-04-08T08:36:28.179Z,77.07
2016-04-08T08:37:21.760Z,75.64
2016-04-08T08:38:34.699Z,75.16
2016-04-08T08:39:28.249Z,75.26
2016-04-08T08:40:15.533Z,74.69
2016-04-08T08:41:15.551Z,74.06
2016-04-08T08:42:22.476Z,73.87
2016-04-08T08:43:34.806Z,74.35
2016-04-08T08:44:28.434Z,74.16
2016-04-08T08:45:41.297Z,74.44
2016-04-08T08:46:37.925Z,73.3
2016-04-08T08:47:25.223Z,73.77
2016-04-08T08:48:50.930Z,74.4
2016-04-08T08:49:34.808Z,74.73
2016-04-08T08:51:00.484Z,74.25
2016-04-08T08:51:38.703Z,74.06
2016-04-08T08:53:54.571Z,72.28
2016-04-08T08:54:54.558Z,72.67
2016-04-08T08:55:54.592Z,73.58
2016-04-08T08:56:54.594Z,73.3
2016-04-08T08:58:00.738Z,73.21
2016-04-08T08:58:54.631Z,72.72
2016-04-08T08:59:54.883Z,72.48
2016-04-08T09:00:54.683Z,72.48
2016-04-08T09:01:56.154Z,71.62
2016-04-08T09:03:00.971Z,70.28
2016-04-08T09:04:04.035Z,70.13
2016-04-08T09:04:54.772Z,70.13
2016-04-08T09:06:13.994Z,69.37
2016-04-08T09:06:56.246Z,68.35
2016-04-08T09:08:26.124Z,66.92
2016-04-08T09:09:09.986Z,66.44
2016-04-08T09:10:10.005Z,67.21
2016-04-08T09:11:22.773Z,67.3
2016-04-08T09:12:22.634Z,65.8
2016-04-08T09:13:22.809Z,64.88
2016-04-08T09:14:10.093Z,62.78
2016-04-08T09:16:33.474Z,62.52
2016-04-08T09:17:32.976Z,61.85
2016-04-08T09:18:33.603Z,60.61
2016-04-08T09:19:33.044Z,58.34
2016-04-08T09:20:46.000Z,58.73
2016-04-08T09:21:45.800Z,59.05
2016-04-08T09:22:52.286Z,58.09
2016-04-08T09:24:01.823Z,57.51
2016-04-08T09:25:14.591Z,57.51
2016-04-08T09:26:01.876Z,58.28
2016-04-08T09:27:01.910Z,56.08
2016-04-08T09:28:01.912Z,56.84
2016-04-08T09:29:01.962Z,56.46
2016-04-08T09:30:14.714Z,56.75
2016-04-08T09:31:08.296Z,55.98
2016-04-08T09:32:21.219Z,56.17
2016-04-08T09:33:17.832Z,55.98
2016-04-08T09:34:30.804Z,57.32
2016-04-08T09:35:27.432Z,57.42
2016-04-08T09:36:27.466Z,57.61
2016-04-08T09:37:40.202Z,57.99
2016-04-08T09:38:33.767Z,59.33
2016-04-08T09:39:27.535Z,58.73
2016-04-08T09:40:27.538Z,57.97
2016-04-08T09:41:27.587Z,57.68
2016-04-08T09:42:40.325Z,57.55
2016-04-08T09:43:27.812Z,57.39
2016-04-08T09:45:37.879Z,55.51
2016-04-08T09:46:37.914Z,57.51
2016-04-08T09:47:37.932Z,57.77
2016-04-08T09:48:44.278Z,58.15
2016-04-08T09:49:38.031Z,58.15
2016-04-08T09:50:57.208Z,59.56
2016-04-08T09:51:39.458Z,59.56
2016-04-08T09:53:53.323Z,61.35
2016-04-08T09:54:53.325Z,59.56
2016-04-08T09:56:06.097Z,59.75
2016-04-08T09:57:06.115Z,59.66
2016-04-08T09:58:12.606Z,60.04
2016-04-08T09:58:53.434Z,60.9
2016-04-08T09:59:53.515Z,60.49
2016-04-08T10:01:03.177Z,60.58
2016-04-08T10:02:03.179Z,63.13
2016-04-08T10:03:25.464Z,63.03
2016-04-08T10:04:06.310Z,63
2016-04-08T10:05:37.609Z,65.3
2016-04-08T10:06:21.550Z,65.36
2016-04-08T10:07:47.239Z,65.83
2016-04-08T10:08:31.180Z,66.22
2016-04-08T10:09:31.198Z,67.07
2016-04-08T10:10:31.216Z,68.12
2016-04-08T10:11:31.845Z,68.79
2016-04-08T10:12:31.253Z,68.22
2016-04-08T10:13:50.490Z,66.31
2016-04-08T10:14:44.055Z,66.41
2016-04-08T10:15:56.999Z,67.93
2016-04-08T10:16:40.811Z,67.65
2016-04-08T10:18:00.097Z,66.94
2016-04-08T10:18:40.863Z,67.27
2016-04-08T10:20:06.587Z,67.83
2016-04-08T10:20:50.493Z,68.32
2016-04-08T10:21:50.528Z,66.98
2016-04-08T10:22:50.546Z,67.74
2016-04-08T10:24:03.302Z,67.27
2016-04-08T10:24:56.866Z,66.12
2016-04-08T10:26:09.822Z,65.83
2016-04-08T10:26:50.619Z,65.64
2016-04-08T10:28:21.952Z,64.78
2016-04-08T10:29:05.846Z,64.81
2016-04-08T10:30:05.833Z,65.45
2016-04-08T10:31:12.210Z,64.31
2016-04-08T10:32:05.884Z,63.45
2016-04-08T10:33:25.122Z,64.15
2016-04-08T10:34:05.937Z,63.96
2016-04-08T10:35:05.956Z,64.34
2016-04-08T10:36:05.973Z,64.97
2016-04-08T10:37:05.992Z,65.83
2016-04-08T10:38:06.011Z,65.17
2016-04-08T10:39:12.295Z,65.45
2016-04-08T10:40:18.172Z,65.45
2016-04-08T10:41:06.081Z,65.83
2016-04-08T10:42:06.099Z,66.12
2016-04-08T10:43:18.837Z,65.55
2016-04-08T10:44:06.199Z,65.01
2016-04-08T10:46:21.985Z,65.58
2016-04-08T10:47:22.082Z,65.1
2016-04-08T10:48:22.022Z,63.86
2016-04-08T10:49:34.791Z,63.86
2016-04-08T10:50:28.340Z,64.37
2016-04-08T10:51:41.357Z,63.23
2016-04-08T10:52:22.127Z,63.7
2016-04-08T10:53:25.191Z,64.09
2016-04-08T10:54:25.257Z,62.59
2016-04-08T10:55:25.243Z,62.4
2016-04-08T10:56:25.293Z,60.52
2016-04-08T10:57:26.702Z,59.94
2016-04-08T10:58:38.049Z,59.84
2016-04-08T10:59:25.333Z,58.89
2016-04-08T11:00:44.582Z,57.01
2016-04-08T11:01:25.397Z,56.15
2016-04-08T11:02:25.417Z,56.05
2016-04-08T11:03:36.450Z,55.22
2016-04-08T11:04:36.389Z,54.9
2016-04-08T11:05:49.206Z,55.1
2016-04-08T11:06:49.177Z,54.93
2016-04-08T11:07:36.461Z,55.22
2016-04-08T11:08:36.494Z,55.12
2016-04-08T11:09:49.247Z,54.26
2016-04-08T11:11:46.191Z,56.15
2016-04-08T11:12:46.208Z,56.15
2016-04-08T11:13:46.227Z,56.82
2016-04-08T11:14:46.276Z,56.98
2016-04-08T11:15:46.294Z,56.02
2016-04-08T11:16:46.907Z,57.36
2016-04-08T11:17:46.332Z,59.44
2016-04-08T11:18:59.087Z,59.44
2016-04-08T11:19:47.805Z,57.87
2016-04-08T11:21:05.608Z,59.88
2016-04-08T11:21:46.421Z,60.46
2016-04-08T11:24:01.663Z,59.85
2016-04-08T11:25:01.681Z,60.33
2016-04-08T11:26:14.417Z,59.56
2016-04-08T11:27:14.451Z,60.14
2016-04-08T11:28:20.939Z,59.98
2016-04-08T11:29:27.426Z,60.93
2016-04-08T11:30:36.976Z,59.44
2016-04-08T11:31:37.009Z,57.9
2016-04-08T11:32:46.622Z,56.95
2016-04-08T11:33:46.686Z,58.29
2016-04-08T11:34:59.426Z,55.9
2016-04-08T11:35:59.429Z,54.11
2016-04-08T11:37:05.917Z,55.07
2016-04-08T11:38:12.419Z,55.19
2016-04-08T11:38:46.747Z,53.66
2016-04-08T11:39:47.000Z,53.94
2016-04-08T11:40:46.800Z,52.8
2016-04-08T11:41:46.833Z,51.1
2016-04-08T11:42:46.852Z,50.72
2016-04-08T11:43:46.902Z,51.01
2016-04-08T11:44:53.169Z,50.65
2016-04-08T11:45:46.906Z,50.56
2016-04-08T11:46:46.940Z,49.79
2016-04-08T11:47:53.241Z,49.6
2016-04-08T11:48:47.180Z,50.36
2016-04-08T11:49:47.011Z,50
2016-04-08T11:50:47.029Z,50.38
2016-04-08T11:52:06.285Z,50.29
2016-04-08T11:52:47.097Z,49.55
2016-04-08T11:53:47.100Z,49.71
2016-04-08T11:54:47.134Z,48.49
2016-04-08T11:55:47.151Z,48.02
2016-04-08T11:56:47.187Z,47.75
2016-04-08T11:57:47.251Z,46.22
2016-04-08T11:58:47.238Z,44.97
2016-04-08T11:59:47.320Z,44.4
2016-04-08T12:00:53.540Z,44.87
2016-04-08T12:01:53.575Z,44.87
2016-04-08T12:03:00.158Z,43.53
2016-04-08T12:03:47.361Z,44.3
2016-04-08T12:05:06.569Z,43.34
2016-04-08T12:06:13.073Z,42.67
2016-04-08T12:06:56.948Z,42.19
2016-04-08T12:07:56.981Z,43.05
2016-04-08T12:09:03.274Z,43.91
2016-04-08T12:10:03.276Z,42.38
2016-04-08T12:10:57.026Z,42.77
2016-04-08T12:12:03.329Z,44.3
2016-04-08T12:12:57.081Z,43.51
2016-04-08T12:14:09.834Z,45.12
2016-04-08T12:14:57.150Z,47.32
2016-04-08T12:16:22.839Z,46.46
2016-04-08T12:17:01.077Z,47.13
2016-04-08T12:18:26.798Z,48.28
2016-04-08T12:19:10.800Z,46.65
2016-04-08T12:20:10.850Z,46.1
2016-04-08T12:21:11.430Z,46.77
2016-04-08T12:22:10.840Z,46.19
2016-04-08T12:23:12.280Z,44.85
2016-04-08T12:24:23.641Z,44.45
2016-04-08T12:25:30.129Z,45.98
2016-04-08T12:26:10.944Z,44.83
2016-04-08T12:27:10.978Z,43.41
2016-04-08T12:28:10.981Z,44.18
2016-04-08T12:29:17.280Z,42.65
2016-04-08T12:30:11.032Z,42.36
2016-04-08T12:31:11.082Z,41.88
2016-04-08T12:32:30.320Z,42.65
2016-04-08T12:33:11.120Z,43.2
2016-04-08T12:34:42.450Z,43.49
2016-04-08T12:35:23.750Z,44.62
2016-04-08T12:36:52.049Z,47.01
2016-04-08T12:37:30.270Z,47.78
2016-04-08T12:39:45.511Z,48.33
2016-04-08T12:40:45.513Z,49.95
2016-04-08T12:41:52.447Z,48.8
2016-04-08T12:42:45.662Z,48.83
2016-04-08T12:43:45.706Z,48.73
2016-04-08T12:44:58.698Z,47.68
2016-04-08T12:45:45.855Z,47.66
2016-04-08T12:47:11.577Z,47.78
2016-04-08T12:47:55.468Z,48.9
2016-04-08T12:48:55.500Z,48.8
2016-04-08T12:49:55.549Z,49.86
2016-04-08T12:50:55.582Z,50.12
2016-04-08T12:51:55.637Z,50.6
2016-04-08T12:53:26.966Z,50.6
2016-04-08T12:54:10.880Z,51.84
2016-04-08T12:55:10.919Z,53.16
2016-04-08T12:56:23.674Z,53.16
2016-04-08T12:57:10.959Z,52.94
2016-04-08T12:58:10.964Z,52.94
2016-04-08T12:59:11.000Z,53.61
2016-04-08T13:00:23.786Z,53.41
2016-04-08T13:01:11.101Z,53.96
2016-04-08T13:02:30.340Z,55.11
2016-04-08T13:03:11.140Z,55.2
2016-04-08T13:04:11.129Z,56.7
2016-04-08T13:05:36.803Z,58.23
2016-04-08T13:06:20.681Z,58.7
2016-04-08T13:07:39.918Z,59.53
2016-04-08T13:08:26.998Z,60.78
2016-04-08T13:09:20.815Z,61.73
2016-04-08T13:10:20.786Z,61.35
2016-04-08T13:11:33.523Z,61.07
2016-04-08T13:12:46.510Z,62.4
2016-04-08T13:13:20.825Z,61.83
2016-04-08T13:15:30.581Z,61.6
2016-04-08T13:17:45.680Z,61.04
2016-04-08T13:18:45.713Z,61.7
2016-04-08T13:19:45.748Z,61.8
2016-04-08T13:20:45.750Z,61.6
2016-04-08T13:21:58.522Z,60.75
2016-04-08T13:22:45.803Z,61.04
2016-04-08T13:24:11.495Z,60.55
2016-04-08T13:24:49.777Z,61.13
2016-04-08T13:27:05.613Z,60.75
2016-04-08T13:28:05.662Z,61.13
2016-04-08T13:29:05.649Z,60.11
2016-04-08T13:30:18.433Z,60.39
2016-04-08T13:31:05.702Z,60.11
2016-04-08T13:32:24.955Z,58.7
2016-04-08T13:33:24.957Z,58.42
2016-04-08T13:34:34.600Z,56.73
2016-04-08T13:35:34.541Z,55.42
2016-04-08T13:36:47.340Z,54.18
2016-04-08T13:37:34.764Z,53.44
2016-04-08T13:39:00.270Z,53.66
2016-04-08T13:39:40.864Z,52.03
2016-04-08T13:40:34.632Z,53.37
2016-04-08T13:41:34.682Z,50.7
2016-04-08T13:42:34.684Z,49.64
2016-04-08T13:43:34.781Z,49.64